Time;durP1;ratioP1;P1;durP2;ratioP2;P2;SDS_P1;SDS_P2;PMS_P1;PMS_P2;Temp;Humidity;BMP_temperature;BMP_pressure;BME280_temperature;BME280_humidity;BME280_pressure;Samples;Min_cycle;Max_cycle;Signal;HPM_P1;HPM_P2
2023/08/10 00:04:15;;;;;;;8.40;3.15;;;;;;;10.56;100.00;101889.03;10457781;28;20036;-77
2023/08/10 00:09:15;;;;;;;8.35;2.90;;;;;;;10.63;100.00;101893.84;10450815;28;20041;-78
2023/08/10 00:14:16;;;;;;;8.02;2.58;;;;;;;10.69;100.00;101890.69;10441249;28;20503;-78
2023/08/10 00:19:17;;;;;;;6.30;3.38;;;;;;;10.71;100.00;101887.38;10472906;28;20036;-78
2023/08/10 00:24:17;;;;;;;9.13;3.08;;;;;;;10.79;100.00;101890.47;10450700;28;20457;-78
2023/08/10 00:29:18;;;;;;;10.32;2.47;;;;;;;10.89;100.00;101885.81;10448020;28;20041;-78
2023/08/10 00:34:18;;;;;;;4.80;2.35;;;;;;;10.96;100.00;101883.69;10460207;28;20115;-79
2023/08/10 00:39:19;;;;;;;3.33;2.00;;;;;;;11.04;100.00;101878.00;10454228;28;20032;-78
2023/08/10 00:44:19;;;;;;;4.30;2.50;;;;;;;11.11;100.00;101880.22;10476263;28;20041;-78
2023/08/10 00:49:20;;;;;;;5.72;2.42;;;;;;;11.14;100.00;101883.00;10455420;28;20484;-79
2023/08/10 00:54:20;;;;;;;8.15;2.58;;;;;;;11.10;100.00;101881.91;10474508;28;20055;-79
2023/08/10 00:59:21;;;;;;;6.55;2.40;;;;;;;11.08;100.00;101882.63;10457251;28;20119;-77
2023/08/10 01:04:21;;;;;;;6.43;2.95;;;;;;;11.10;100.00;101883.63;10449913;28;20359;-78
2023/08/10 01:09:38;;;;;;;6.88;2.00;;;;;;;11.18;100.00;101873.59;10442465;28;20048;-78
2023/08/10 01:15:04;;;;;;;5.72;2.53;;;;;;;11.21;100.00;101877.34;10456863;28;20489;-79
2023/08/10 01:20:07;;;;;;;8.88;3.95;;;;;;;11.32;100.00;101883.22;10410875;28;20080;-79
2023/08/10 01:25:08;;;;;;;9.23;2.25;;;;;;;11.40;100.00;101886.31;10436814;28;20037;-78
2023/08/10 01:30:09;;;;;;;9.02;3.20;;;;;;;11.40;100.00;101876.72;10428220;28;20040;-78
2023/08/10 01:35:10;;;;;;;4.60;2.78;;;;;;;11.41;100.00;101893.38;10458108;28;20041;-77
2023/08/10 01:40:13;;;;;;;7.50;3.70;;;;;;;11.40;100.00;101887.22;10467829;28;20037;-78
2023/08/10 01:45:13;;;;;;;6.50;2.38;;;;;;;11.39;100.00;101888.03;10461432;28;20481;-78
2023/08/10 01:50:15;;;;;;;7.22;3.15;;;;;;;11.35;100.00;101885.13;10458490;28;20044;-79
2023/08/10 01:55:16;;;;;;;10.27;3.15;;;;;;;11.24;100.00;101882.78;10437603;28;20048;-78
2023/08/10 02:00:16;;;;;;;8.32;3.58;;;;;;;11.22;100.00;101879.16;10471947;28;20037;-78
2023/08/10 02:05:17;;;;;;;6.38;3.53;;;;;;;11.19;100.00;101884.19;10434502;28;20098;-78
2023/08/10 02:10:18;;;;;;;7.05;2.88;;;;;;;11.21;100.00;101892.13;10480758;28;20099;-78
2023/08/10 02:15:18;;;;;;;8.50;3.05;;;;;;;11.33;100.00;101885.03;10450360;28;20400;-78
2023/08/10 02:20:19;;;;;;;6.88;2.72;;;;;;;11.32;100.00;101883.22;10441748;28;20045;-79
2023/08/10 02:25:20;;;;;;;6.25;2.85;;;;;;;11.31;100.00;101886.66;10411037;28;20056;-77
2023/08/10 02:30:21;;;;;;;6.63;3.03;;;;;;;11.26;100.00;101896.88;10429505;28;20128;-78
2023/08/10 02:35:21;;;;;;;6.93;3.15;;;;;;;11.21;100.00;101905.25;10420879;28;21916;-78
2023/08/10 02:40:22;;;;;;;7.43;3.10;;;;;;;11.19;100.00;101904.25;10443847;28;20040;-78
2023/08/10 02:45:22;;;;;;;6.78;3.22;;;;;;;11.18;100.00;101902.44;10450809;28;20049;-78
2023/08/10 02:50:23;;;;;;;4.82;2.83;;;;;;;11.14;100.00;101904.88;10488525;28;20366;-80
2023/08/10 02:55:24;;;;;;;7.95;3.08;;;;;;;11.12;100.00;101916.97;10456960;28;20044;-78
2023/08/10 03:00:25;;;;;;;6.77;3.00;;;;;;;11.07;100.00;101927.97;10452830;28;20041;-79
2023/08/10 03:05:25;;;;;;;9.02;3.92;;;;;;;10.88;100.00;101916.34;10446983;28;20544;-78
2023/08/10 03:10:26;;;;;;;8.80;3.60;;;;;;;10.64;100.00;101908.75;10454644;28;20094;-78
2023/08/10 03:15:27;;;;;;;7.90;3.92;;;;;;;10.37;100.00;101918.28;10454776;28;20114;-78
2023/08/10 03:20:27;;;;;;;11.90;4.57;;;;;;;10.17;100.00;101924.84;10426579;28;20040;-78
2023/08/10 03:25:28;;;;;;;11.18;4.72;;;;;;;10.07;100.00;101924.22;10450742;28;20898;-78
2023/08/10 03:30:28;;;;;;;7.03;4.00;;;;;;;9.96;100.00;101930.44;10464993;28;20127;-79
2023/08/10 03:35:29;;;;;;;12.43;5.70;;;;;;;9.88;100.00;101935.16;10455429;28;20048;-79
2023/08/10 03:40:29;;;;;;;9.55;5.28;;;;;;;9.81;100.00;101939.06;10489479;28;20116;-78
2023/08/10 03:45:30;;;;;;;10.50;4.13;;;;;;;9.76;100.00;101931.69;10444843;28;20093;-79
2023/08/10 03:50:30;;;;;;;10.35;4.45;;;;;;;9.67;100.00;101934.59;10459086;28;20051;-80
2023/08/10 03:55:31;;;;;;;10.05;4.13;;;;;;;9.56;100.00;101941.69;10434334;28;20066;-78
2023/08/10 04:00:32;;;;;;;10.05;5.40;;;;;;;9.43;100.00;101937.34;10458112;28;20058;-78
2023/08/10 04:05:32;;;;;;;10.80;6.45;;;;;;;9.36;100.00;101949.06;10425348;28;20051;-78
2023/08/10 04:10:33;;;;;;;10.70;6.40;;;;;;;9.33;100.00;101948.84;10406752;28;20178;-78
2023/08/10 04:15:33;;;;;;;15.13;7.85;;;;;;;9.39;100.00;101945.78;10452388;28;20493;-78
2023/08/10 04:20:34;;;;;;;15.68;7.57;;;;;;;9.48;100.00;101954.25;10457452;28;20076;-78
2023/08/10 04:25:35;;;;;;;17.30;6.97;;;;;;;9.62;100.00;101955.19;10443180;28;20047;-79
2023/08/10 04:30:36;;;;;;;15.43;7.35;;;;;;;9.65;100.00;101955.41;10445153;28;20047;-80
2023/08/10 04:35:39;;;;;;;9.13;5.72;;;;;;;9.63;100.00;101949.16;10443908;28;20037;-79
2023/08/10 04:40:41;;;;;;;13.63;7.85;;;;;;;9.65;100.00;101954.50;10452979;28;20048;-77
2023/08/10 04:45:42;;;;;;;13.43;7.97;;;;;;;9.67;100.00;101953.78;10438306;28;20512;-78
2023/08/10 04:50:42;;;;;;;11.48;8.45;;;;;;;9.68;100.00;101959.94;10411736;28;20060;-77
2023/08/10 04:55:46;;;;;;;10.65;6.03;;;;;;;9.83;100.00;101966.22;10434535;28;20038;-75
2023/08/10 05:00:47;;;;;;;11.18;6.35;;;;;;;10.09;100.00;101969.69;10420542;28;20043;-76
2023/08/10 05:05:47;;;;;;;10.35;6.00;;;;;;;10.38;100.00;101969.81;10419289;28;20025;-76
2023/08/10 05:10:49;;;;;;;13.95;6.25;;;;;;;10.72;100.00;101969.44;10415022;28;20515;-76
2023/08/10 05:15:50;;;;;;;;;;;;;;;10.97;100.00;101963.16;10421235;28;20362;-76
2023/08/10 05:20:50;;;;;;;17.50;5.93;;;;;;;11.11;100.00;101971.91;10425611;28;19921;-75
2023/08/10 05:25:51;;;;;;;11.70;6.18;;;;;;;11.34;100.00;101972.44;10413275;28;20120;-77
2023/08/10 05:30:52;;;;;;;8.98;4.93;;;;;;;11.62;100.00;101964.53;10419497;28;20131;-76
2023/08/10 05:35:52;;;;;;;6.13;4.07;;;;;;;11.87;100.00;101964.31;10405021;28;20473;-77
2023/08/10 05:40:55;;;;;;;10.63;4.65;;;;;;;11.90;100.00;101966.22;10415739;28;20909;-76
2023/08/10 05:45:55;;;;;;;5.90;3.78;;;;;;;12.10;100.00;101954.31;10440680;28;20045;-77
2023/08/10 05:50:56;;;;;;;7.28;5.28;;;;;;;12.81;100.00;101946.06;10398700;28;20041;-76
2023/08/10 05:55:56;;;;;;;9.82;4.32;;;;;;;13.13;100.00;101925.91;10413791;28;20084;-76
2023/08/10 06:00:57;;;;;;;17.98;5.75;;;;;;;13.18;100.00;101916.53;10442184;28;20042;-78
2023/08/10 06:05:57;;;;;;;8.80;6.32;;;;;;;13.83;100.00;101905.88;10482282;28;20124;-77
2023/08/10 06:10:58;;;;;;;9.00;4.45;;;;;;;14.68;100.00;101897.75;10425780;28;20467;-78
2023/08/10 06:15:59;;;;;;;10.95;3.75;;;;;;;15.47;100.00;101863.50;10417238;28;20047;-77
2023/08/10 06:20:59;;;;;;;7.18;4.18;;;;;;;16.14;100.00;101854.03;10412720;28;20561;-77
2023/08/10 06:26:05;;;;;;;10.57;4.40;;;;;;;17.07;100.00;101859.38;10493431;28;20044;-75
2023/08/10 06:31:11;;;;;;;6.85;3.47;;;;;;;17.90;100.00;101877.22;10461683;28;20048;-77
2023/08/10 06:36:12;;;;;;;9.48;3.92;;;;;;;18.21;100.00;101877.38;10424903;28;20045;-77
2023/08/10 06:41:12;;;;;;;6.67;3.33;;;;;;;19.01;100.00;101884.25;10414021;28;20037;-77
2023/08/10 06:46:13;;;;;;;8.07;3.17;;;;;;;20.25;100.00;101902.59;10410670;28;20037;-78
2023/08/10 06:51:13;;;;;;;10.03;4.80;;;;;;;21.23;100.00;101912.72;10400228;28;20057;-78
2023/08/10 06:56:14;;;;;;;7.23;4.13;;;;;;;21.30;100.00;101925.28;10441813;28;20484;-78
2023/08/10 07:01:16;;;;;;;6.43;3.67;;;;;;;21.84;100.00;101939.69;10460015;28;20067;-78
2023/08/10 07:06:17;;;;;;;8.55;3.35;;;;;;;22.07;100.00;101935.59;10432633;28;20050;-78
2023/08/10 07:11:18;;;;;;;6.43;3.08;;;;;;;22.67;100.00;101933.00;10412001;28;20059;-77
2023/08/10 07:16:20;;;;;;;6.13;3.60;;;;;;;22.88;100.00;101924.41;10410957;28;20095;-78
2023/08/10 07:21:20;;;;;;;6.03;3.55;;;;;;;22.32;100.00;101946.66;10409773;28;20489;-78
2023/08/10 07:26:21;;;;;;;4.60;2.57;;;;;;;22.74;100.00;101945.56;10409299;28;20128;-78
2023/08/10 07:31:23;;;;;;;6.73;2.77;;;;;;;23.00;100.00;101937.00;10420824;28;20038;-78
2023/08/10 07:36:25;;;;;;;3.50;1.95;;;;;;;22.66;100.00;101941.88;10411351;28;20033;-79
2023/08/10 07:41:25;;;;;;;3.92;1.98;;;;;;;23.01;100.00;101945.06;10422684;28;20037;-78
2023/08/10 07:46:27;;;;;;;4.17;1.97;;;;;;;23.93;100.00;101934.50;10403854;28;20055;-79
2023/08/10 07:51:27;;;;;;;6.45;2.08;;;;;;;24.73;93.46;101928.88;10405562;28;20052;-80
2023/08/10 07:56:30;;;;;;;5.65;2.10;;;;;;;24.71;88.08;101944.00;10401655;28;20556;-80
2023/08/10 08:01:30;;;;;;;6.23;1.87;;;;;;;24.93;83.01;101937.03;10406941;28;20124;-79
2023/08/10 08:06:31;;;;;;;3.63;2.33;;;;;;;25.58;79.15;101936.38;10397425;28;20696;-79
2023/08/10 08:11:34;;;;;;;3.08;2.10;;;;;;;25.92;61.71;101949.81;10401297;28;20403;-79
2023/08/10 08:16:35;;;;;;;3.35;1.90;;;;;;;25.72;61.69;101933.75;10407751;28;20033;-79
2023/08/10 08:21:35;;;;;;;6.60;2.17;;;;;;;26.12;59.92;101933.75;10391885;28;20124;-79
2023/08/10 08:26:38;;;;;;;4.10;1.98;;;;;;;26.70;67.72;101929.22;10415206;28;20071;-78
2023/08/10 08:31:38;;;;;;;4.95;2.85;;;;;;;26.23;58.21;101939.13;10436858;28;20124;-79
2023/08/10 08:36:39;;;;;;;3.87;1.23;;;;;;;26.14;59.42;101936.44;10410618;28;20029;-79
2023/08/10 08:41:40;;;;;;;7.40;2.10;;;;;;;27.54;48.08;101919.03;10415727;28;20041;-80
2023/08/10 08:46:41;;;;;;;3.95;1.92;;;;;;;27.30;47.17;101940.63;10420403;28;20469;-80
2023/08/10 08:51:41;;;;;;;7.23;1.60;;;;;;;27.18;46.87;101941.59;10375196;28;20041;-79
2023/08/10 08:56:42;;;;;;;9.63;2.53;;;;;;;28.08;44.71;101927.59;10421497;28;20763;-80
2023/08/10 09:01:43;;;;;;;3.63;1.63;;;;;;;28.49;48.44;101922.72;10415162;28;20116;-79
2023/08/10 09:06:45;;;;;;;3.35;1.40;;;;;;;29.43;39.95;101924.31;10396196;28;20090;-80
2023/08/10 09:11:46;;;;;;;3.05;2.05;;;;;;;29.17;38.63;101924.63;10446995;28;20156;-80
2023/08/10 09:16:46;;;;;;;4.85;2.63;;;;;;;28.75;42.71;101916.16;10450374;28;20118;-84
2023/08/10 09:21:47;;;;;;;4.03;1.30;;;;;;;28.83;47.91;101906.22;10449735;28;20044;-88
2023/08/10 09:26:47;;;;;;;3.72;2.40;;;;;;;29.02;45.44;101912.25;10402628;28;20037;-80
2023/08/10 09:31:48;;;;;;;4.33;2.00;;;;;;;29.66;43.49;101909.56;10415530;28;20049;-80
2023/08/10 09:36:52;;;;;;;4.07;2.70;;;;;;;29.51;44.10;101899.91;10406535;28;20260;-80
2023/08/10 09:41:56;;;;;;;3.83;2.05;;;;;;;29.70;48.98;101896.91;10416392;28;20112;-80
2023/08/10 09:46:58;;;;;;;2.10;1.63;;;;;;;30.46;45.11;101904.59;10411975;28;20037;-80
2023/08/10 09:51:59;;;;;;;4.43;1.52;;;;;;;29.51;45.25;101910.69;10427188;28;20263;-79
2023/08/10 09:57:00;;;;;;;2.30;1.63;;;;;;;30.70;43.53;101905.03;10419545;28;20076;-80
2023/08/10 10:02:00;;;;;;;;;;;;;;;30.24;44.30;101898.72;10408896;28;20120;-79
2023/08/10 10:07:01;;;;;;;3.77;1.50;;;;;;;30.10;50.11;101898.09;10443663;28;20332;-79
2023/08/10 10:12:01;;;;;;;3.58;1.73;;;;;;;29.43;49.22;101896.44;10418654;28;20041;-81
2023/08/10 10:17:02;;;;;;;4.33;1.83;;;;;;;28.83;47.23;101884.66;10420151;28;20053;-80
2023/08/10 10:22:03;;;;;;;4.10;1.92;;;;;;;29.80;47.46;101908.47;10448460;28;20106;-80
2023/08/10 10:27:09;;;;;;;4.32;2.08;;;;;;;31.25;49.63;101904.78;10461912;28;20113;-80
2023/08/10 10:32:09;;;;;;;7.68;2.53;;;;;;;31.34;45.71;101914.53;10456524;28;20056;-80
2023/08/10 10:37:15;;;;;;;2.93;1.40;;;;;;;30.24;49.94;101919.41;10415902;28;20047;-80
2023/08/10 10:42:16;;;;;;;3.63;2.03;;;;;;;30.57;42.18;101928.69;10462062;28;20114;-81
2023/08/10 10:47:17;;;;;;;;;;;;;;;30.94;39.57;101916.25;10446784;28;20041;-80
2023/08/10 10:52:34;;;;;;;4.25;2.40;;;;;;;30.91;39.62;101903.72;10465427;28;19993;-79
2023/08/10 10:57:36;;;;;;;4.68;1.83;;;;;;;31.04;39.82;101890.81;10437465;28;20135;-81
2023/08/10 11:02:37;;;;;;;8.15;2.95;;;;;;;31.28;40.62;101899.31;10450217;28;20119;-81
2023/08/10 11:07:44;;;;;;;2.70;1.67;;;;;;;31.70;45.30;101897.44;10447906;28;20039;-80
2023/08/10 11:12:47;;;;;;;6.88;2.17;;;;;;;30.09;43.72;101886.38;10467921;28;20271;-80
2023/08/10 11:17:49;;;;;;;7.65;2.15;;;;;;;30.71;44.38;101885.22;10460334;28;20044;-80
2023/08/10 11:22:51;;;;;;;5.18;2.35;;;;;;;30.45;43.85;101881.19;10468954;28;20552;-81
2023/08/10 11:27:53;;;;;;;4.72;1.83;;;;;;;30.21;49.64;101879.88;10420250;28;20037;-80
2023/08/10 11:32:54;;;;;;;2.65;1.85;;;;;;;30.94;46.83;101875.72;10431815;28;20504;-78
2023/08/10 11:37:54;;;;;;;;;;;;;;;31.57;46.16;101869.81;10421066;28;20041;-77
2023/08/10 11:43:11;;;;;;;7.00;2.13;;;;;;;32.48;37.85;101853.88;10443985;28;19917;-79
2023/08/10 11:48:14;;;;;;;5.22;2.63;;;;;;;32.41;39.60;101868.53;10451798;28;20040;-79
2023/08/10 11:53:16;;;;;;;4.25;2.38;;;;;;;32.10;39.01;101872.06;10436381;28;20052;-78
2023/08/10 11:58:17;;;;;;;3.42;1.58;;;;;;;31.35;42.37;101867.63;10468947;28;20032;-78
2023/08/10 12:03:21;;;;;;;6.30;2.00;;;;;;;31.43;41.11;101859.31;10458462;28;20037;-78
2023/08/10 12:08:29;;;;;;;3.70;2.67;;;;;;;31.19;39.99;101861.69;10453150;28;20048;-78
2023/08/10 12:13:29;;;;;;;4.45;2.10;;;;;;;30.50;43.96;101864.91;10455837;28;20029;-77
2023/08/10 12:18:30;;;;;;;4.57;2.57;;;;;;;31.33;47.30;101851.44;10409076;28;20405;-78
2023/08/10 12:23:31;;;;;;;3.13;2.20;;;;;;;30.89;45.52;101851.50;10408210;28;20292;-78
2023/08/10 12:28:31;;;;;;;7.15;2.28;;;;;;;31.26;45.69;101854.34;10419417;28;20041;-78
2023/08/10 12:33:33;;;;;;;5.47;2.73;;;;;;;31.11;47.58;101852.81;10409018;28;20041;-77
2023/08/10 12:38:33;;;;;;;3.60;2.20;;;;;;;32.14;40.20;101860.22;10416364;28;20167;-77
2023/08/10 12:43:34;;;;;;;3.47;2.03;;;;;;;31.72;45.24;101855.88;10407969;28;20055;-78
2023/08/10 12:48:34;;;;;;;6.07;2.03;;;;;;;31.59;43.02;101855.28;10408849;28;20043;-78
2023/08/10 12:53:35;;;;;;;5.55;1.90;;;;;;;27.93;52.55;101859.56;10402831;28;20042;-77
2023/08/10 12:58:35;;;;;;;4.20;2.40;;;;;;;24.96;100.00;101861.16;10424470;28;20037;-78
2023/08/10 13:03:36;;;;;;;5.90;2.20;;;;;;;26.74;86.40;101857.59;10427236;28;20362;-78
2023/08/10 13:08:37;;;;;;;2.50;1.60;;;;;;;28.80;57.31;101852.38;10391564;28;20049;-78
2023/08/10 13:13:37;;;;;;;4.25;2.13;;;;;;;29.83;56.61;101859.84;10415889;28;20041;-77
2023/08/10 13:18:38;;;;;;;2.33;2.13;;;;;;;30.48;50.37;101858.66;10407867;28;20037;-77
2023/08/10 13:23:38;;;;;;;3.70;1.83;;;;;;;31.23;54.28;101871.50;10422044;28;20140;-77
2023/08/10 13:28:39;;;;;;;5.23;2.87;;;;;;;31.14;49.43;101850.97;10415366;28;20056;-77
2023/08/10 13:33:39;;;;;;;3.27;1.60;;;;;;;31.31;51.55;101853.28;10408210;28;20504;-77
2023/08/10 13:38:40;;;;;;;2.63;1.47;;;;;;;31.41;49.31;101853.97;10411840;28;20048;-77
2023/08/10 13:43:41;;;;;;;5.50;2.57;;;;;;;32.11;43.82;101845.88;10425597;28;20045;-78
2023/08/10 13:48:41;;;;;;;3.85;2.10;;;;;;;31.96;48.65;101842.66;10415296;28;20266;-77
2023/08/10 13:53:42;;;;;;;1.73;1.23;;;;;;;32.85;39.59;101842.88;10457641;28;20033;-77
2023/08/10 13:58:42;;;;;;;2.88;1.50;;;;;;;32.28;44.04;101843.59;10465275;28;20120;-77
2023/08/10 14:03:43;;;;;;;5.40;1.92;;;;;;;31.01;42.12;101841.34;10454487;28;20385;-77
2023/08/10 14:08:44;;;;;;;5.88;1.73;;;;;;;30.77;49.23;101825.66;10463882;28;20045;-76
2023/08/10 14:13:45;;;;;;;3.80;2.30;;;;;;;30.79;49.00;101827.41;10454495;28;20049;-78
2023/08/10 14:18:45;;;;;;;4.15;2.03;;;;;;;29.99;46.48;101828.09;10423718;28;20029;-77
2023/08/10 14:23:46;;;;;;;3.43;2.03;;;;;;;29.38;50.72;101830.88;10407938;28;20152;-80
2023/08/10 14:28:47;;;;;;;4.43;2.13;;;;;;;29.15;49.37;101821.34;10418107;28;20856;-79
2023/08/10 14:33:47;;;;;;;4.83;2.23;;;;;;;28.90;50.29;101824.41;10419882;28;20053;-79
2023/08/10 14:38:48;;;;;;;4.30;1.98;;;;;;;28.67;51.66;101814.78;10467348;28;20035;-81
2023/08/10 14:43:49;;;;;;;4.00;1.90;;;;;;;28.42;56.67;101811.53;10457929;28;20543;-80
2023/08/10 14:48:50;;;;;;;6.03;2.67;;;;;;;28.72;53.38;101807.56;10465401;28;20055;-80
2023/08/10 14:53:51;;;;;;;5.75;1.60;;;;;;;28.54;50.47;101810.47;10484439;28;20056;-80
2023/08/10 14:58:51;;;;;;;2.85;1.63;;;;;;;28.47;55.32;101809.69;10451479;28;20427;-80
2023/08/10 15:03:52;;;;;;;3.17;1.83;;;;;;;28.23;58.87;101805.47;10462451;28;20091;-79
2023/08/10 15:08:53;;;;;;;3.40;1.73;;;;;;;27.73;60.95;101797.00;10492630;28;20093;-80
2023/08/10 15:13:53;;;;;;;5.10;2.50;;;;;;;27.25;59.76;101799.13;10456427;28;20079;-79
2023/08/10 15:18:54;;;;;;;3.47;2.00;;;;;;;27.31;66.21;101802.69;10452340;28;20496;-80
2023/08/10 15:23:54;;;;;;;3.87;1.93;;;;;;;27.00;85.47;101797.53;10456324;28;20044;-79
2023/08/10 15:28:55;;;;;;;3.53;1.87;;;;;;;27.04;87.41;101804.66;10456219;28;20041;-80
2023/08/10 15:33:56;;;;;;;3.23;1.60;;;;;;;26.68;83.34;101804.84;10461872;28;20075;-82
2023/08/10 15:38:56;;;;;;;4.87;2.13;;;;;;;25.63;100.00;101796.13;10473180;28;20499;-80
2023/08/10 15:43:57;;;;;;;6.17;3.30;;;;;;;24.72;100.00;101782.53;10477924;28;20045;-80
2023/08/10 15:48:57;;;;;;;5.17;2.47;;;;;;;24.11;100.00;101784.03;10481027;28;20046;-80
2023/08/10 15:53:58;;;;;;;3.63;1.97;;;;;;;23.69;100.00;101779.28;10452543;28;21853;-79
2023/08/10 15:58:59;;;;;;;6.57;2.43;;;;;;;23.47;100.00;101772.88;10421902;28;20044;-79
2023/08/10 16:03:59;;;;;;;3.58;2.28;;;;;;;23.17;100.00;101775.25;10414314;28;20047;-79
2023/08/10 16:09:00;;;;;;;5.53;3.03;;;;;;;23.09;100.00;101776.06;10421544;28;20051;-80
2023/08/10 16:14:01;;;;;;;3.97;2.07;;;;;;;22.93;100.00;101780.34;10403016;28;20409;-79
2023/08/10 16:19:01;;;;;;;7.00;2.80;;;;;;;22.83;100.00;101776.69;10416452;28;20037;-80
2023/08/10 16:24:02;;;;;;;7.10;2.33;;;;;;;22.65;100.00;101769.34;10415879;28;20504;-80
2023/08/10 16:29:02;;;;;;;3.83;2.97;;;;;;;22.53;100.00;101778.13;10410109;28;20044;-79
2023/08/10 16:34:03;;;;;;;9.50;3.30;;;;;;;22.51;100.00;101777.19;10411177;28;20037;-79
2023/08/10 16:39:04;;;;;;;6.30;2.20;;;;;;;22.41;100.00;101777.03;10419603;28;20384;-79
2023/08/10 16:44:05;;;;;;;3.33;1.93;;;;;;;22.31;100.00;101785.81;10409782;28;20056;-79
2023/08/10 16:49:05;;;;;;;4.87;2.13;;;;;;;22.18;100.00;101784.72;10412772;28;20555;-79
2023/08/10 16:54:07;;;;;;;2.70;1.90;;;;;;;22.03;100.00;101777.41;10417015;28;20472;-79
2023/08/10 16:59:08;;;;;;;3.47;2.15;;;;;;;21.96;100.00;101781.75;10419937;28;20053;-79
2023/08/10 17:04:09;;;;;;;7.53;4.40;;;;;;;21.78;100.00;101778.78;10429928;28;20044;-80
2023/08/10 17:09:09;;;;;;;6.83;2.20;;;;;;;21.57;100.00;101777.53;10426050;28;20041;-79
2023/08/10 17:14:12;;;;;;;5.17;2.83;;;;;;;21.39;100.00;101776.38;10425584;28;20482;-79
2023/08/10 17:19:12;;;;;;;5.97;2.47;;;;;;;21.29;100.00;101774.41;10425229;28;20496;-79
2023/08/10 17:24:13;;;;;;;4.10;2.57;;;;;;;21.23;100.00;101771.63;10428318;28;20045;-80
2023/08/10 17:29:13;;;;;;;5.20;2.77;;;;;;;21.14;100.00;101783.03;10434687;28;20417;-81
2023/08/10 17:34:14;;;;;;;5.80;2.43;;;;;;;20.87;100.00;101770.09;10425970;28;20095;-80
2023/08/10 17:39:15;;;;;;;8.40;2.42;;;;;;;20.43;100.00;101761.22;10420631;28;20038;-80
2023/08/10 17:44:15;;;;;;;5.77;2.13;;;;;;;20.16;100.00;101725.19;10417070;28;20041;-80
2023/08/10 17:49:16;;;;;;;8.83;3.20;;;;;;;19.90;100.00;101728.16;10436442;28;20160;-80
2023/08/10 17:54:16;;;;;;;7.67;3.37;;;;;;;19.66;100.00;101733.78;10434419;28;20041;-80
2023/08/10 17:59:17;;;;;;;3.78;2.65;;;;;;;19.36;100.00;101729.53;10426090;28;20499;-80
2023/08/10 18:04:18;;;;;;;4.60;2.47;;;;;;;19.13;100.00;101732.50;10434809;28;20053;-80
2023/08/10 18:09:19;;;;;;;6.18;2.67;;;;;;;18.91;100.00;101725.66;10418405;28;20065;-80
2023/08/10 18:14:20;;;;;;;5.22;2.83;;;;;;;18.75;100.00;101717.28;10458292;28;20041;-81
2023/08/10 18:19:20;;;;;;;5.28;2.83;;;;;;;18.68;100.00;101730.34;10457903;28;20491;-80
2023/08/10 18:24:21;;;;;;;4.13;2.90;;;;;;;18.47;100.00;101727.13;10470336;28;20480;-80
2023/08/10 18:29:21;;;;;;;6.40;3.58;;;;;;;18.39;100.00;101741.91;10456662;28;20097;-80
2023/08/10 18:34:22;;;;;;;7.68;3.88;;;;;;;18.22;100.00;101744.06;10453735;28;20045;-80
2023/08/10 18:39:23;;;;;;;5.28;2.85;;;;;;;18.05;100.00;101747.09;10467844;28;20076;-80
2023/08/10 18:44:24;;;;;;;6.60;2.67;;;;;;;17.94;100.00;101764.38;10461730;28;20048;-80
2023/08/10 18:49:24;;;;;;;8.48;3.78;;;;;;;17.65;100.00;101766.06;10457545;28;20116;-79
2023/08/10 18:54:25;;;;;;;4.95;3.28;;;;;;;17.46;100.00;101786.63;10466600;28;20119;-80
2023/08/10 18:59:25;;;;;;;8.05;3.80;;;;;;;17.24;100.00;101790.28;10464257;28;20511;-79
2023/08/10 19:04:26;;;;;;;8.63;3.72;;;;;;;17.06;100.00;101794.09;10458260;28;20120;-79
2023/08/10 19:09:26;;;;;;;9.18;4.32;;;;;;;16.91;100.00;101820.81;10462572;28;20518;-79
2023/08/10 19:14:27;;;;;;;5.35;2.80;;;;;;;16.72;100.00;101814.84;10452663;28;20094;-80
2023/08/10 19:19:27;;;;;;;7.85;4.43;;;;;;;16.63;100.00;101819.78;10459675;28;20120;-89
2023/08/10 19:24:28;;;;;;;11.55;5.00;;;;;;;16.50;100.00;101823.72;10455655;28;20041;-81
2023/08/10 19:29:30;;;;;;;5.50;3.47;;;;;;;16.35;100.00;101833.69;10459990;28;20041;-80
2023/08/10 19:34:30;;;;;;;10.18;5.85;;;;;;;16.20;100.00;101832.25;10473638;28;20427;-83
2023/08/10 19:39:31;;;;;;;7.75;4.85;;;;;;;16.07;100.00;101828.19;10465053;28;20086;-79
2023/08/10 19:44:31;;;;;;;11.95;5.13;;;;;;;15.91;100.00;101831.97;10471835;28;20041;-80
2023/08/10 19:49:32;;;;;;;12.52;4.85;;;;;;;15.78;100.00;101837.53;10467990;28;20388;-79
2023/08/10 19:54:33;;;;;;;7.53;4.60;;;;;;;15.66;100.00;101845.84;10460261;28;20049;-79
2023/08/10 19:59:34;;;;;;;8.23;4.70;;;;;;;15.60;100.00;101850.84;10456568;28;20102;-79
2023/08/10 20:04:35;;;;;;;11.80;5.23;;;;;;;15.53;100.00;101863.78;10465352;28;20037;-80
2023/08/10 20:09:35;;;;;;;5.32;3.97;;;;;;;15.43;100.00;101863.31;10453471;28;20036;-79
2023/08/10 20:14:36;;;;;;;7.68;4.50;;;;;;;15.35;100.00;101852.44;10466932;28;20464;-79
2023/08/10 20:19:37;;;;;;;7.15;5.47;;;;;;;15.33;100.00;101854.09;10455908;28;20044;-80
2023/08/10 20:24:38;;;;;;;12.30;6.95;;;;;;;15.29;100.00;101863.63;10479676;28;20132;-79
2023/08/10 20:29:38;;;;;;;8.85;5.40;;;;;;;15.21;100.00;101873.81;10450298;28;20132;-80
2023/08/10 20:34:39;;;;;;;14.38;5.28;;;;;;;15.12;100.00;101878.69;10448819;28;20047;-80
2023/08/10 20:39:39;;;;;;;11.05;4.88;;;;;;;15.03;100.00;101881.81;10471305;28;20029;-80
2023/08/10 20:44:40;;;;;;;11.77;4.93;;;;;;;14.96;100.00;101890.28;10468446;28;20040;-80
2023/08/10 20:49:41;;;;;;;9.45;6.03;;;;;;;14.88;100.00;101882.00;10472802;28;20036;-80
2023/08/10 20:54:41;;;;;;;9.38;6.25;;;;;;;14.79;100.00;101892.13;10457081;28;20098;-79
2023/08/10 20:59:42;;;;;;;11.93;6.40;;;;;;;14.74;100.00;101906.81;10451461;28;20149;-81
2023/08/10 21:04:43;;;;;;;9.90;6.63;;;;;;;14.70;100.00;101895.22;10496209;28;20595;-80
2023/08/10 21:09:44;;;;;;;8.95;6.30;;;;;;;14.55;100.00;101892.72;10457817;28;20045;-78
2023/08/10 21:14:44;;;;;;;9.07;5.32;;;;;;;14.43;100.00;101892.13;10468076;28;20041;-79
2023/08/10 21:19:45;;;;;;;12.57;6.18;;;;;;;14.35;100.00;101895.31;10488580;28;20037;-79
2023/08/10 21:24:45;;;;;;;10.25;6.10;;;;;;;14.31;100.00;101895.09;10451869;28;20032;-79
2023/08/10 21:29:46;;;;;;;9.98;6.82;;;;;;;14.23;100.00;101893.00;10457420;28;20045;-81
2023/08/10 21:34:47;;;;;;;9.32;6.45;;;;;;;14.18;100.00;101891.84;10477431;28;20120;-79
2023/08/10 21:39:48;;;;;;;9.85;6.97;;;;;;;14.12;100.00;101899.47;10457109;28;20037;-79
2023/08/10 21:44:49;;;;;;;16.13;7.75;;;;;;;14.06;100.00;101899.16;10503213;28;20078;-80
2023/08/10 21:49:49;;;;;;;13.10;7.88;;;;;;;14.00;100.00;101889.19;10467255;28;20638;-81
2023/08/10 21:54:50;;;;;;;11.25;6.65;;;;;;;13.92;100.00;101891.47;10464322;28;20051;-80
2023/08/10 21:59:50;;;;;;;13.65;7.32;;;;;;;13.88;100.00;101881.63;10441690;28;20132;-79
2023/08/10 22:04:51;;;;;;;9.88;8.00;;;;;;;13.80;100.00;101891.72;10442918;28;20041;-80
2023/08/10 22:09:52;;;;;;;15.00;8.15;;;;;;;13.79;100.00;101884.66;10425618;28;20037;-78
2023/08/10 22:14:54;;;;;;;11.38;7.63;;;;;;;13.76;100.00;101876.63;10439783;28;20160;-79
2023/08/10 22:19:56;;;;;;;12.90;8.93;;;;;;;13.73;100.00;101878.22;10442407;28;20083;-79
2023/08/10 22:24:56;;;;;;;15.70;9.47;;;;;;;13.76;100.00;101881.00;10440663;28;20041;-79
2023/08/10 22:29:57;;;;;;;11.02;7.60;;;;;;;13.68;100.00;101874.44;10439422;28;20045;-79
2023/08/10 22:34:57;;;;;;;11.18;8.77;;;;;;;13.65;100.00;101875.16;10446115;28;20393;-80
2023/08/10 22:39:58;;;;;;;11.90;8.80;;;;;;;13.61;100.00;101871.50;10439576;28;20050;-79
2023/08/10 22:44:58;;;;;;;13.98;8.77;;;;;;;13.57;100.00;101876.50;10431479;28;20041;-79
2023/08/10 22:49:59;;;;;;;12.30;9.13;;;;;;;13.51;100.00;101872.72;10446325;28;20536;-79
2023/08/10 22:55:00;;;;;;;12.75;8.80;;;;;;;13.48;100.00;101875.19;10484021;28;20037;-79